Погода Умберту-ди-Кампусна неделю

Мараньян, Бразилия

13 - 19 июля
  • 13июля
    Сегодня
    +23°
    +32°
    Облачно с прояснениями, небольшой дождь
    ВремяПогодаТемператураВлажностьДавлениеВетер, м/сВероятность осадков
    00:00Облачно с прояснениями+25°C92 %761 мм1.8 м/с3 %
    03:00Облачно с прояснениями+25°C94 %760 мм1.7 м/с15 %
    06:00Облачно с прояснениями+24°C94 %760 мм2.2 м/с15 %
    09:00Облачно с прояснениями+28°C71 %761 мм3.9 м/с25 %
    12:00Облачно с прояснениями+31°C54 %760 мм5.0 м/с34 %
    15:00Облачно с прояснениями, небольшой дождь+30°C51 %759 мм4.1 м/с49 %
    18:00Облачно с прояснениями+28°C65 %759 мм1.9 м/с17 %
    21:00Облачно с прояснениями+26°C80 %760 мм0.9 м/с5 %
  • 14июля
    Воскресенье
    +23°
    +32°
    Ясно и безоблачно
    ВремяПогодаТемператураВлажностьДавлениеВетер, м/сВероятность осадков
    00:00Облачно с прояснениями+26°C90 %761 мм1.8 м/с5 %
    03:00Облачно с прояснениями+24°C95 %760 мм1.3 м/с3 %
    06:00Ясно и безоблачно+23°C98 %760 мм1.7 м/с2 %
    09:00Ясно и безоблачно+28°C55 %762 мм3.8 м/с2 %
    12:00Небольшая облачность+31°C45 %761 мм3.8 м/с5 %
    15:00Ясно и безоблачно+32°C43 %759 мм2.9 м/с5 %
    18:00Ясно и безоблачно+28°C63 %759 мм1.3 м/с4 %
    21:00Практически безоблачно+25°C80 %761 мм1.8 м/с5 %
  • 15июля
    Понедельник
    +23°
    +32°
    Практически безоблачно
    ВремяПогодаТемператураВлажностьДавлениеВетер, м/сВероятность осадков
    00:00Ясно и безоблачно+26°C85 %761 мм1.3 м/с5 %
    03:00Ясно и безоблачно+24°C89 %760 мм1.0 м/с12 %
    06:00Ясно и безоблачно+24°C94 %760 мм2.1 м/с14 %
    09:00Ясно и безоблачно+28°C66 %762 мм4.0 м/с12 %
    12:00Практически безоблачно+31°C49 %761 мм4.3 м/с5 %
    15:00Практически безоблачно+32°C46 %760 мм4.0 м/с6 %
    18:00Ясно и безоблачно+29°C68 %760 мм1.1 м/с7 %
    21:00Ясно и безоблачно+26°C82 %762 мм2.4 м/с7 %
  • 16июля
    Вторник
    +23°
    +33°
    Небольшая облачность
    ВремяПогодаТемператураВлажностьДавлениеВетер, м/сВероятность осадков
    00:00Облачно с прояснениями+26°C90 %762 мм1.1 м/с25 %
    03:00Ясно и безоблачно+25°C93 %761 мм0.9 м/с31 %
    06:00Ясно и безоблачно+23°C96 %761 мм1.2 м/с34 %
    09:00Ясно и безоблачно+28°C68 %763 мм3.0 м/с22 %
    12:00Практически безоблачно+32°C45 %762 мм3.4 м/с10 %
    15:00Небольшая облачность+32°C43 %760 мм3.6 м/с5 %
    18:00Практически безоблачно+29°C66 %761 мм0.8 м/с6 %
    21:00Ясно и безоблачно+26°C85 %762 мм1.5 м/с5 %
  • 17июля
    Среда
    +23°
    +33°
    Небольшая облачность
    ВремяПогодаТемператураВлажностьДавлениеВетер, м/сВероятность осадков
    00:00Ясно и безоблачно+25°C91 %762 мм2.2 м/с6 %
    03:00Ясно и безоблачно+24°C93 %761 мм1.9 м/с12 %
    06:00Ясно и безоблачно+24°C95 %762 мм2.1 м/с29 %
    09:00Ясно и безоблачно+28°C64 %763 мм3.7 м/с10 %
    12:00Практически безоблачно+32°C43 %761 мм4.1 м/с3 %
    15:00Небольшая облачность+33°C39 %759 мм3.6 м/с5 %
    18:00Практически безоблачно+29°C69 %760 мм2.1 м/с5 %
    21:00Ясно и безоблачно+26°C84 %762 мм2.6 м/с5 %
Мы используем cookies
Соглашаюсь